Time;durP1;ratioP1;P1;durP2;ratioP2;P2;SDS_P1;SDS_P2;PMS_P1;PMS_P2;Temp;Humidity;BMP_temperature;BMP_pressure;BME280_temperature;BME280_humidity;BME280_pressure;Samples;Min_cycle;Max_cycle;Signal;HPM_P1;HPM_P2
2021/06/10 00:02:02;;;;;;;5.40;4.90;;;;;;;;;;5069285;28;20603;-60
2021/06/10 00:04:28;;;;;;;5.10;4.80;;;;;;;;;;5066420;28;20189;-59
2021/06/10 00:06:53;;;;;;;4.93;4.63;;;;;;;;;;5068885;28;20173;-60
2021/06/10 00:09:18;;;;;;;5.00;4.70;;;;;;;;;;5068002;28;20683;-59
2021/06/10 00:11:43;;;;;;;6.72;6.05;;;;;;;;;;5068241;28;20276;-60
2021/06/10 00:14:09;;;;;;;5.47;5.10;;;;;;;;;;5068411;28;20192;-60
2021/06/10 00:16:34;;;;;;;5.83;5.30;;;;;;;;;;5069041;28;20264;-60
2021/06/10 00:18:59;;;;;;;6.30;4.90;;;;;;;;;;5066970;28;20203;-60
2021/06/10 00:21:24;;;;;;;5.37;5.00;;;;;;;;;;5068579;28;20170;-59
2021/06/10 00:23:49;;;;;;;5.17;4.80;;;;;;;;;;5068294;28;20187;-59
2021/06/10 00:26:14;;;;;;;6.17;5.70;;;;;;;;;;5068707;28;20814;-59
2021/06/10 00:28:39;;;;;;;5.67;5.17;;;;;;;;;;5068351;28;20186;-60
2021/06/10 00:31:05;;;;;;;5.30;4.97;;;;;;;;;;5068631;28;20592;-60
2021/06/10 00:33:30;;;;;;;6.10;5.60;;;;;;;;;;5068806;28;20181;-60
2021/06/10 00:35:55;;;;;;;5.03;4.63;;;;;;;;;;5067958;28;20223;-60
2021/06/10 00:38:20;;;;;;;5.00;4.70;;;;;;;;;;5068017;28;20182;-60
2021/06/10 00:40:45;;;;;;;5.37;4.97;;;;;;;;;;5068486;28;20178;-60
2021/06/10 00:43:11;;;;;;;5.13;4.80;;;;;;;;;;5068334;28;20174;-60
2021/06/10 00:45:36;;;;;;;5.87;5.47;;;;;;;;;;5067934;28;20292;-59
2021/06/10 00:48:01;;;;;;;5.03;4.73;;;;;;;;;;5068880;28;20304;-59
2021/06/10 00:50:31;;;;;;;5.63;5.20;;;;;;;;;;5067053;28;20694;-59
2021/06/10 00:52:56;;;;;;;7.27;5.43;;;;;;;;;;5067518;28;20553;-59
2021/06/10 00:55:21;;;;;;;4.97;4.60;;;;;;;;;;5068756;28;20616;-59
2021/06/10 00:57:46;;;;;;;5.70;5.30;;;;;;;;;;5067782;28;20313;-59
2021/06/10 01:00:12;;;;;;;5.73;5.30;;;;;;;;;;5067359;28;20187;-60
2021/06/10 01:02:38;;;;;;;5.40;5.00;;;;;;;;;;5065091;28;20731;-59
2021/06/10 01:05:04;;;;;;;7.10;5.40;;;;;;;;;;5066061;28;20688;-59
2021/06/10 01:07:49;;;;;;;6.07;5.57;;;;;;;;;;5068032;28;20166;-59
2021/06/10 01:10:24;;;;;;;5.80;5.43;;;;;;;;;;5065210;28;20652;-61
2021/06/10 01:12:52;;;;;;;6.03;5.33;;;;;;;;;;5067057;28;20642;-60
2021/06/10 01:15:19;;;;;;;5.60;5.10;;;;;;;;;;5068134;28;20589;-60
2021/06/10 01:17:47;;;;;;;4.90;4.50;;;;;;;;;;5067351;28;20642;-59
2021/06/10 01:20:12;;;;;;;5.57;5.17;;;;;;;;;;5067100;28;21253;-59
2021/06/10 01:22:59;;;;;;;5.87;5.47;;;;;;;;;;5066785;28;20719;-59
2021/06/10 01:25:24;;;;;;;5.53;5.20;;;;;;;;;;5061641;28;20208;-59
2021/06/10 01:27:51;;;;;;;6.15;5.45;;;;;;;;;;5066656;28;21447;-60
2021/06/10 01:30:18;;;;;;;5.77;5.37;;;;;;;;;;5067380;28;20203;-59
2021/06/10 01:32:47;;;;;;;5.60;5.20;;;;;;;;;;5067680;28;20626;-59
2021/06/10 01:35:13;;;;;;;6.43;5.87;;;;;;;;;;5067060;28;20606;-59
2021/06/10 01:37:39;;;;;;;5.77;5.30;;;;;;;;;;5067229;28;20604;-60
2021/06/10 01:40:04;;;;;;;6.60;6.00;;;;;;;;;;5068047;28;20629;-60
2021/06/10 01:42:30;;;;;;;5.87;5.20;;;;;;;;;;5066239;28;20562;-60
2021/06/10 01:44:56;;;;;;;6.00;5.50;;;;;;;;;;5067228;28;20177;-59
2021/06/10 01:47:22;;;;;;;5.77;5.37;;;;;;;;;;5067619;28;20275;-59
2021/06/10 01:49:48;;;;;;;5.63;5.13;;;;;;;;;;5066878;28;20182;-59
2021/06/10 01:52:14;;;;;;;5.50;5.10;;;;;;;;;;5068024;28;20753;-59
2021/06/10 01:54:40;;;;;;;6.80;5.57;;;;;;;;;;5064385;28;20711;-59
2021/06/10 01:57:05;;;;;;;6.53;6.13;;;;;;;;;;5066788;28;20168;-59
2021/06/10 01:59:31;;;;;;;6.47;5.50;;;;;;;;;;5067197;28;20592;-59
2021/06/10 02:02:02;;;;;;;5.93;5.40;;;;;;;;;;5066831;28;20688;-59
2021/06/10 02:04:27;;;;;;;6.37;5.87;;;;;;;;;;5065237;28;20840;-59
2021/06/10 02:06:53;;;;;;;6.17;5.70;;;;;;;;;;5065932;28;20750;-60
2021/06/10 02:09:20;;;;;;;7.60;5.67;;;;;;;;;;5067644;28;20185;-60
2021/06/10 02:11:46;;;;;;;5.63;5.07;;;;;;;;;;5065687;28;20672;-60
2021/06/10 02:14:13;;;;;;;6.20;5.70;;;;;;;;;;5066174;28;20691;-59
2021/06/10 02:16:39;;;;;;;6.10;5.60;;;;;;;;;;5067194;28;20600;-59
2021/06/10 02:19:04;;;;;;;6.20;5.60;;;;;;;;;;5066218;28;21244;-59
2021/06/10 02:21:31;;;;;;;5.70;5.20;;;;;;;;;;5066504;28;20610;-59
2021/06/10 02:23:56;;;;;;;6.70;6.30;;;;;;;;;;5067064;28;20181;-59
2021/06/10 02:26:21;;;;;;;6.43;5.80;;;;;;;;;;5066530;28;20607;-59
2021/06/10 02:28:46;;;;;;;6.85;6.40;;;;;;;;;;5066004;28;20185;-59
2021/06/10 02:31:12;;;;;;;6.13;5.60;;;;;;;;;;5066582;28;20228;-59
2021/06/10 02:33:38;;;;;;;6.27;5.63;;;;;;;;;;5068286;28;20167;-59
2021/06/10 02:36:07;;;;;;;6.33;5.87;;;;;;;;;;5068915;28;20194;-59
2021/06/10 02:38:33;;;;;;;6.30;5.70;;;;;;;;;;5069623;28;20650;-59
2021/06/10 02:41:00;;;;;;;8.00;5.87;;;;;;;;;;5070212;28;20602;-59
2021/06/10 02:43:28;;;;;;;5.93;5.27;;;;;;;;;;5070138;28;20696;-57
2021/06/10 02:45:53;;;;;;;6.10;5.60;;;;;;;;;;5069869;28;20597;-57
2021/06/10 02:48:18;;;;;;;5.77;5.37;;;;;;;;;;5070289;28;20594;-58
2021/06/10 02:50:45;;;;;;;7.00;6.60;;;;;;;;;;5069999;28;20201;-57
2021/06/10 02:53:15;;;;;;;6.40;5.93;;;;;;;;;;5068721;28;20543;-57
2021/06/10 02:55:40;;;;;;;6.80;6.20;;;;;;;;;;5069815;28;20686;-58
2021/06/10 02:58:06;;;;;;;6.80;6.30;;;;;;;;;;5067852;28;21093;-58
2021/06/10 03:00:32;;;;;;;6.70;5.93;;;;;;;;;;5065553;28;20608;-58
2021/06/10 03:02:57;;;;;;;7.17;6.27;;;;;;;;;;5068418;28;20196;-58
2021/06/10 03:05:23;;;;;;;6.67;6.27;;;;;;;;;;5069858;28;20614;-59
2021/06/10 03:07:49;;;;;;;7.43;6.73;;;;;;;;;;5069396;28;20177;-60
2021/06/10 03:10:14;;;;;;;7.57;6.90;;;;;;;;;;5066808;28;20711;-59
2021/06/10 03:12:40;;;;;;;7.33;6.73;;;;;;;;;;5069904;28;20172;-59
2021/06/10 03:15:06;;;;;;;7.10;6.60;;;;;;;;;;5069560;28;20172;-58
2021/06/10 03:17:32;;;;;;;7.60;7.00;;;;;;;;;;5069994;28;20591;-58
2021/06/10 03:19:57;;;;;;;6.80;6.20;;;;;;;;;;5069452;28;20606;-59
2021/06/10 03:22:22;;;;;;;7.60;7.00;;;;;;;;;;5068879;28;20195;-59
2021/06/10 03:24:48;;;;;;;7.00;6.50;;;;;;;;;;5069034;28;20174;-59
2021/06/10 03:27:13;;;;;;;8.43;7.67;;;;;;;;;;5069533;28;20722;-59
2021/06/10 03:29:40;;;;;;;7.20;6.60;;;;;;;;;;5060773;28;20555;-61
2021/06/10 03:32:06;;;;;;;7.00;6.40;;;;;;;;;;5064517;28;20686;-61
2021/06/10 03:34:33;;;;;;;7.30;6.70;;;;;;;;;;5069478;28;20598;-61
2021/06/10 03:36:58;;;;;;;6.57;6.17;;;;;;;;;;5068781;28;20589;-61
2021/06/10 03:39:24;;;;;;;6.80;6.40;;;;;;;;;;5068506;28;20900;-62
2021/06/10 03:41:50;;;;;;;7.20;6.60;;;;;;;;;;5068660;28;20639;-62
2021/06/10 03:44:16;;;;;;;7.20;6.63;;;;;;;;;;5064919;28;20192;-62
2021/06/10 03:46:42;;;;;;;9.57;7.57;;;;;;;;;;5065961;28;20607;-62
2021/06/10 03:49:09;;;;;;;7.33;6.83;;;;;;;;;;5066990;28;20639;-62
2021/06/10 03:51:34;;;;;;;7.20;6.60;;;;;;;;;;5064605;28;20664;-61
2021/06/10 03:54:00;;;;;;;6.85;6.45;;;;;;;;;;5065409;28;21174;-61
2021/06/10 03:56:25;;;;;;;7.20;6.60;;;;;;;;;;5065013;28;20248;-61
2021/06/10 03:58:50;;;;;;;6.93;6.40;;;;;;;;;;5062158;28;20182;-61
2021/06/10 04:01:15;;;;;;;6.30;5.90;;;;;;;;;;5066298;28;20180;-61
2021/06/10 04:03:40;;;;;;;6.60;6.00;;;;;;;;;;5065022;28;20658;-61
2021/06/10 04:06:06;;;;;;;6.17;5.67;;;;;;;;;;5065676;28;20266;-62
2021/06/10 04:08:31;;;;;;;5.57;5.20;;;;;;;;;;5064937;28;20189;-59
2021/06/10 04:10:56;;;;;;;6.70;6.20;;;;;;;;;;5063182;28;20241;-59
2021/06/10 04:13:21;;;;;;;6.33;5.83;;;;;;;;;;5067461;28;20194;-58
2021/06/10 04:15:46;;;;;;;10.13;5.97;;;;;;;;;;5068069;28;20245;-59
2021/06/10 04:18:17;;;;;;;5.72;5.32;;;;;;;;;;5068069;28;20178;-58
2021/06/10 04:20:44;;;;;;;6.67;6.17;;;;;;;;;;5067318;28;20197;-59
2021/06/10 04:23:09;;;;;;;7.43;6.77;;;;;;;;;;5067918;28;20600;-59
2021/06/10 04:25:34;;;;;;;6.78;6.38;;;;;;;;;;5067194;28;20611;-59
2021/06/10 04:27:59;;;;;;;6.07;5.47;;;;;;;;;;5067574;28;20276;-59
2021/06/10 04:30:24;;;;;;;6.55;5.97;;;;;;;;;;5067427;28;20201;-59
2021/06/10 04:32:50;;;;;;;6.45;5.97;;;;;;;;;;5064443;28;20170;-59
2021/06/10 04:35:15;;;;;;;6.57;6.07;;;;;;;;;;5060607;28;20185;-62
2021/06/10 04:37:41;;;;;;;7.53;5.80;;;;;;;;;;5063782;28;20663;-61
2021/06/10 04:40:06;;;;;;;6.60;6.03;;;;;;;;;;5064071;28;20590;-62
2021/06/10 04:42:32;;;;;;;6.13;5.63;;;;;;;;;;5060272;28;20674;-62
2021/06/10 04:44:57;;;;;;;6.20;5.70;;;;;;;;;;5062654;28;20178;-62
2021/06/10 04:47:22;;;;;;;6.30;5.80;;;;;;;;;;5063545;28;20638;-63
2021/06/10 04:49:48;;;;;;;7.20;6.70;;;;;;;;;;5060260;28;20516;-62
2021/06/10 04:52:14;;;;;;;7.43;6.80;;;;;;;;;;5064674;28;20167;-62
2021/06/10 04:54:39;;;;;;;6.40;6.00;;;;;;;;;;5064010;28;20523;-62
2021/06/10 04:57:04;;;;;;;6.45;6.00;;;;;;;;;;5064109;28;20681;-62
2021/06/10 04:59:30;;;;;;;6.10;5.50;;;;;;;;;;5064012;28;20507;-62
2021/06/10 05:01:56;;;;;;;6.80;6.10;;;;;;;;;;5063660;28;20588;-61
2021/06/10 05:04:21;;;;;;;6.13;5.70;;;;;;;;;;5064729;28;20314;-62
2021/06/10 05:06:46;;;;;;;6.97;6.43;;;;;;;;;;5061829;28;20291;-62
2021/06/10 05:09:11;;;;;;;7.13;6.50;;;;;;;;;;5061170;28;20185;-62
2021/06/10 05:11:36;;;;;;;6.28;5.82;;;;;;;;;;5062606;28;20771;-62
2021/06/10 05:14:01;;;;;;;6.47;6.07;;;;;;;;;;5064611;28;20179;-62
2021/06/10 05:16:27;;;;;;;6.27;5.87;;;;;;;;;;5063671;28;20203;-62
2021/06/10 05:18:52;;;;;;;6.40;5.83;;;;;;;;;;5065763;28;20160;-62
2021/06/10 05:21:18;;;;;;;5.27;4.97;;;;;;;;;;5064965;28;20710;-62
2021/06/10 05:23:43;;;;;;;5.60;5.20;;;;;;;;;;5067034;28;20187;-62
2021/06/10 05:26:08;;;;;;;5.90;5.60;;;;;;;;;;5066282;28;20168;-62
2021/06/10 05:28:36;;;;;;;5.70;5.20;;;;;;;;;;5067403;28;20171;-62
2021/06/10 05:31:02;;;;;;;5.93;5.43;;;;;;;;;;5067594;28;20649;-62
2021/06/10 05:33:28;;;;;;;5.80;5.40;;;;;;;;;;5067441;28;20574;-62
2021/06/10 05:35:53;;;;;;;5.40;5.10;;;;;;;;;;5066442;28;21095;-62
2021/06/10 05:38:18;;;;;;;6.63;6.13;;;;;;;;;;5067449;28;20182;-62
2021/06/10 05:40:43;;;;;;;6.70;6.20;;;;;;;;;;5066738;28;20176;-62
2021/06/10 05:43:09;;;;;;;6.68;6.07;;;;;;;;;;5067130;28;20184;-61
2021/06/10 05:45:35;;;;;;;6.83;6.23;;;;;;;;;;5067418;28;20178;-61
2021/06/10 05:48:00;;;;;;;6.10;5.70;;;;;;;;;;5066086;28;20696;-61
2021/06/10 05:50:25;;;;;;;6.18;5.78;;;;;;;;;;5066373;28;20204;-61
2021/06/10 05:52:50;;;;;;;5.97;5.40;;;;;;;;;;5064771;28;20633;-62
2021/06/10 05:55:15;;;;;;;6.13;5.53;;;;;;;;;;5064385;28;20185;-62
2021/06/10 05:57:40;;;;;;;6.03;5.63;;;;;;;;;;5063566;28;20266;-62
2021/06/10 06:00:07;;;;;;;6.05;5.45;;;;;;;;;;5064252;28;20610;-62
2021/06/10 06:02:32;;;;;;;6.00;5.40;;;;;;;;;;5064270;28;20173;-61
2021/06/10 06:04:57;;;;;;;5.90;5.40;;;;;;;;;;5062798;28;20579;-61
2021/06/10 06:07:23;;;;;;;6.07;5.57;;;;;;;;;;5063310;28;20182;-61
2021/06/10 06:09:48;;;;;;;5.33;5.00;;;;;;;;;;5064075;28;20706;-61
2021/06/10 06:12:15;;;;;;;6.53;6.03;;;;;;;;;;5063765;28;20174;-61
2021/06/10 06:14:42;;;;;;;8.40;5.57;;;;;;;;;;5063953;28;20188;-61
2021/06/10 06:17:09;;;;;;;6.07;5.50;;;;;;;;;;5063487;28;20581;-61
2021/06/10 06:19:36;;;;;;;6.23;5.63;;;;;;;;;;5061533;28;20608;-60
2021/06/10 06:22:02;;;;;;;5.87;5.47;;;;;;;;;;5063335;28;20605;-61
2021/06/10 06:24:29;;;;;;;6.70;6.20;;;;;;;;;;5063452;28;20619;-61
2021/06/10 06:26:54;;;;;;;5.80;5.40;;;;;;;;;;5042407;28;20579;-61
2021/06/10 06:29:19;;;;;;;6.20;5.70;;;;;;;;;;5051032;28;20584;-61
2021/06/10 06:31:44;;;;;;;6.20;5.60;;;;;;;;;;5063032;28;20204;-62
2021/06/10 06:34:09;;;;;;;6.37;5.70;;;;;;;;;;5062942;28;20762;-63
2021/06/10 06:36:35;;;;;;;6.53;5.97;;;;;;;;;;5058624;28;20269;-62
2021/06/10 06:39:00;;;;;;;5.87;5.47;;;;;;;;;;5061727;28;20206;-62
2021/06/10 06:41:25;;;;;;;6.65;6.25;;;;;;;;;;5066257;28;20174;-62
2021/06/10 06:43:50;;;;;;;6.17;5.67;;;;;;;;;;5066116;28;20178;-62
2021/06/10 06:46:15;;;;;;;5.90;5.50;;;;;;;;;;5065255;28;20224;-62
2021/06/10 06:48:41;;;;;;;6.37;5.87;;;;;;;;;;5065465;28;20288;-62
2021/06/10 06:51:07;;;;;;;6.80;6.10;;;;;;;;;;5065491;28;20205;-62
2021/06/10 06:53:32;;;;;;;6.60;6.10;;;;;;;;;;5065648;28;20560;-62
2021/06/10 06:55:58;;;;;;;7.13;6.63;;;;;;;;;;5066126;28;20747;-63
2021/06/10 06:58:23;;;;;;;6.60;6.20;;;;;;;;;;5066914;28;20425;-62
2021/06/10 07:00:49;;;;;;;7.40;6.33;;;;;;;;;;5063417;28;20542;-62
2021/06/10 07:03:14;;;;;;;6.80;6.20;;;;;;;;;;5064623;28;20214;-62
2021/06/10 07:05:39;;;;;;;7.03;6.32;;;;;;;;;;5064495;28;20648;-61
2021/06/10 07:08:04;;;;;;;7.33;6.73;;;;;;;;;;5061932;28;20183;-61
2021/06/10 07:10:29;;;;;;;6.60;6.20;;;;;;;;;;5066225;28;20368;-60
2021/06/10 07:12:55;;;;;;;5.80;5.40;;;;;;;;;;5065560;28;20489;-61
2021/06/10 07:15:20;;;;;;;6.85;6.22;;;;;;;;;;5066880;28;20260;-60
2021/06/10 07:17:45;;;;;;;7.20;6.60;;;;;;;;;;5067032;28;20177;-60
2021/06/10 07:20:11;;;;;;;6.35;5.95;;;;;;;;;;5070115;28;20581;-60
2021/06/10 07:22:37;;;;;;;6.40;6.00;;;;;;;;;;5069726;28;20175;-61
2021/06/10 07:25:03;;;;;;;7.10;6.60;;;;;;;;;;5069790;28;20599;-61
2021/06/10 07:27:28;;;;;;;6.20;5.70;;;;;;;;;;5069970;28;20602;-61
2021/06/10 07:29:54;;;;;;;7.10;6.40;;;;;;;;;;5069985;28;20244;-61
2021/06/10 07:32:20;;;;;;;7.43;6.00;;;;;;;;;;5069676;28;20173;-61
2021/06/10 07:34:45;;;;;;;6.00;5.60;;;;;;;;;;5069634;28;20221;-61
2021/06/10 07:37:10;;;;;;;6.87;5.83;;;;;;;;;;5069581;28;20636;-61
2021/06/10 07:39:35;;;;;;;6.38;5.82;;;;;;;;;;5069776;28;20217;-61
2021/06/10 07:42:00;;;;;;;7.10;6.40;;;;;;;;;;5069531;28;20572;-61
2021/06/10 07:44:26;;;;;;;6.47;5.83;;;;;;;;;;5068170;28;20629;-61
2021/06/10 07:46:51;;;;;;;6.50;5.93;;;;;;;;;;5069405;28;20183;-62
2021/06/10 07:49:17;;;;;;;6.60;6.10;;;;;;;;;;5069595;28;20176;-61
2021/06/10 07:51:42;;;;;;;6.93;6.43;;;;;;;;;;5068933;28;20206;-61
2021/06/10 07:54:07;;;;;;;7.85;5.75;;;;;;;;;;5069603;28;20170;-61
2021/06/10 07:56:32;;;;;;;6.63;6.10;;;;;;;;;;5069411;28;20187;-61
2021/06/10 07:58:57;;;;;;;7.25;5.32;;;;;;;;;;5069554;28;20167;-61
2021/06/10 08:01:22;;;;;;;7.18;6.63;;;;;;;;;;5068693;28;20178;-61
2021/06/10 08:03:47;;;;;;;8.10;6.85;;;;;;;;;;5068893;28;20273;-61
2021/06/10 08:06:13;;;;;;;8.05;7.55;;;;;;;;;;5068795;28;20206;-61
2021/06/10 08:08:38;;;;;;;7.80;7.20;;;;;;;;;;5069778;28;20178;-61
2021/06/10 08:11:06;;;;;;;7.00;6.60;;;;;;;;;;5068347;28;20244;-61
2021/06/10 08:13:32;;;;;;;7.20;6.70;;;;;;;;;;5068490;28;20174;-61
2021/06/10 08:15:57;;;;;;;7.83;7.33;;;;;;;;;;5068652;28;20547;-61
2021/06/10 08:18:22;;;;;;;8.47;7.70;;;;;;;;;;5069460;28;20205;-61
2021/06/10 08:20:47;;;;;;;8.77;7.93;;;;;;;;;;5068110;28;20178;-60
2021/06/10 08:23:12;;;;;;;9.00;8.20;;;;;;;;;;5069023;28;20182;-61
2021/06/10 08:25:43;;;;;;;8.67;8.17;;;;;;;;;;5068862;28;20176;-61
2021/06/10 08:28:08;;;;;;;9.23;8.53;;;;;;;;;;5069193;28;20227;-61
2021/06/10 08:30:34;;;;;;;10.07;9.37;;;;;;;;;;5068258;28;20649;-62
2021/06/10 08:32:59;;;;;;;10.17;9.23;;;;;;;;;;5069161;28;20613;-62
2021/06/10 08:35:24;;;;;;;9.80;9.10;;;;;;;;;;5068399;28;20186;-62
2021/06/10 08:37:49;;;;;;;10.87;10.07;;;;;;;;;;5066701;28;20179;-62
2021/06/10 08:40:14;;;;;;;10.20;9.45;;;;;;;;;;5068820;28;20637;-62
2021/06/10 08:42:43;;;;;;;10.83;9.90;;;;;;;;;;5066958;28;20683;-61
2021/06/10 08:45:13;;;;;;;9.87;9.07;;;;;;;;;;5068408;28;20173;-62
2021/06/10 08:47:40;;;;;;;10.40;9.60;;;;;;;;;;5068414;28;21209;-62
2021/06/10 08:50:05;;;;;;;10.07;9.33;;;;;;;;;;5068183;28;20611;-62
2021/06/10 08:52:33;;;;;;;9.77;9.07;;;;;;;;;;5061454;28;20608;-62
2021/06/10 08:54:59;;;;;;;8.83;8.20;;;;;;;;;;5067430;28;20244;-62
2021/06/10 08:57:24;;;;;;;9.80;9.20;;;;;;;;;;5068060;28;21163;-62
2021/06/10 08:59:50;;;;;;;10.33;9.63;;;;;;;;;;5067891;28;20286;-62
2021/06/10 09:02:15;;;;;;;11.07;10.27;;;;;;;;;;5068009;28;20173;-62
2021/06/10 09:04:40;;;;;;;9.97;9.13;;;;;;;;;;5066809;28;20226;-62
2021/06/10 09:07:07;;;;;;;9.95;9.20;;;;;;;;;;5067848;28;20190;-63
2021/06/10 09:09:36;;;;;;;9.70;9.10;;;;;;;;;;5067866;28;20652;-63
2021/06/10 09:12:06;;;;;;;9.73;9.10;;;;;;;;;;5067994;28;20627;-63
2021/06/10 09:14:49;;;;;;;12.40;11.17;;;;;;;;;;5067473;28;20634;-62
2021/06/10 09:17:24;;;;;;;11.70;10.80;;;;;;;;;;5067745;28;20593;-62
2021/06/10 09:19:50;;;;;;;10.23;9.43;;;;;;;;;;5067846;28;20568;-62
2021/06/10 09:22:15;;;;;;;10.02;9.32;;;;;;;;;;5067900;28;21169;-62
2021/06/10 09:24:41;;;;;;;11.35;10.65;;;;;;;;;;5067642;28;20180;-62
2021/06/10 09:27:14;;;;;;;11.33;10.33;;;;;;;;;;5066716;28;20276;-62
2021/06/10 09:29:52;;;;;;;10.87;9.97;;;;;;;;;;5067272;28;20959;-62
2021/06/10 09:32:23;;;;;;;11.47;10.57;;;;;;;;;;5067764;28;20962;-62
2021/06/10 09:34:55;;;;;;;13.23;12.23;;;;;;;;;;5067332;28;20633;-62
2021/06/10 09:37:24;;;;;;;11.37;10.67;;;;;;;;;;5067048;28;20608;-62
2021/06/10 09:39:51;;;;;;;10.77;9.97;;;;;;;;;;5066941;28;21138;-62
2021/06/10 09:42:21;;;;;;;12.30;11.30;;;;;;;;;;5067333;28;20648;-62
2021/06/10 09:44:54;;;;;;;11.20;10.47;;;;;;;;;;5067546;28;21182;-62
2021/06/10 09:47:26;;;;;;;11.60;10.60;;;;;;;;;;5066831;28;21015;-62
2021/06/10 09:49:51;;;;;;;12.07;11.37;;;;;;;;;;5066851;28;20890;-62
2021/06/10 09:52:16;;;;;;;13.38;12.43;;;;;;;;;;5067003;28;20644;-62
2021/06/10 09:54:46;;;;;;;12.33;11.43;;;;;;;;;;5067102;28;20266;-62
2021/06/10 09:57:11;;;;;;;12.03;11.23;;;;;;;;;;5067176;28;20239;-62
2021/06/10 09:59:55;;;;;;;12.03;11.13;;;;;;;;;;5067007;28;20601;-63
2021/06/10 10:02:20;;;;;;;12.93;12.03;;;;;;;;;;5058875;28;20212;-62
2021/06/10 10:05:00;;;;;;;12.97;12.07;;;;;;;;;;5067025;28;20618;-62
2021/06/10 10:07:27;;;;;;;16.20;14.90;;;;;;;;;;5066775;28;20178;-62
2021/06/10 10:09:52;;;;;;;16.13;15.03;;;;;;;;;;5066688;28;20634;-62
2021/06/10 10:12:18;;;;;;;14.30;13.40;;;;;;;;;;5066752;28;20659;-62
2021/06/10 10:14:44;;;;;;;14.70;13.70;;;;;;;;;;5067276;28;20170;-62
2021/06/10 10:17:09;;;;;;;14.70;13.40;;;;;;;;;;5066647;28;20647;-62
2021/06/10 10:19:34;;;;;;;13.97;13.07;;;;;;;;;;5067074;28;20593;-62
2021/06/10 10:21:59;;;;;;;14.25;13.25;;;;;;;;;;5057287;28;20185;-61
2021/06/10 10:24:25;;;;;;;14.67;13.47;;;;;;;;;;5046838;28;20182;-62
2021/06/10 10:26:50;;;;;;;14.57;13.50;;;;;;;;;;5046825;28;20265;-62
2021/06/10 10:29:16;;;;;;;14.47;13.47;;;;;;;;;;5047406;28;20679;-62
2021/06/10 10:31:42;;;;;;;14.17;13.27;;;;;;;;;;5046760;28;20196;-62
2021/06/10 10:34:21;;;;;;;15.40;14.40;;;;;;;;;;5057150;28;21534;-62
2021/06/10 10:36:46;;;;;;;17.30;15.60;;;;;;;;;;5066795;28;20170;-62
2021/06/10 10:39:11;;;;;;;12.80;11.70;;;;;;;;;;5066694;28;20559;-63
2021/06/10 10:41:46;;;;;;;16.73;15.13;;;;;;;;;;5065953;28;20804;-61
2021/06/10 10:44:20;;;;;;;16.63;15.30;;;;;;;;;;5065598;28;20184;-61
2021/06/10 10:46:54;;;;;;;15.03;13.90;;;;;;;;;;5066141;28;20568;-61
2021/06/10 10:49:21;;;;;;;16.47;14.90;;;;;;;;;;5066315;28;20599;-60
2021/06/10 10:51:46;;;;;;;18.00;16.60;;;;;;;;;;5065674;28;20638;-61
2021/06/10 10:54:30;;;;;;;14.63;13.60;;;;;;;;;;5069258;28;20583;-61
2021/06/10 10:56:55;;;;;;;14.30;13.20;;;;;;;;;;5069171;28;20181;-61
2021/06/10 10:59:20;;;;;;;16.63;15.20;;;;;;;;;;5069803;28;20585;-62
2021/06/10 11:02:05;;;;;;;16.83;15.50;;;;;;;;;;5069506;28;20181;-61
2021/06/10 11:04:47;;;;;;;18.80;17.10;;;;;;;;;;5069392;28;20188;-59
2021/06/10 11:07:30;;;;;;;22.77;18.13;;;;;;;;;;5069153;28;20610;-59
2021/06/10 11:09:55;;;;;;;23.37;19.57;;;;;;;;;;5069663;28;20624;-59
2021/06/10 11:12:39;;;;;;;21.38;19.50;;;;;;;;;;5070033;28;20639;-60
2021/06/10 11:15:05;;;;;;;23.70;21.43;;;;;;;;;;5069153;28;20171;-59
2021/06/10 11:17:41;;;;;;;19.10;17.60;;;;;;;;;;5069008;28;21168;-60
2021/06/10 11:20:07;;;;;;;16.17;14.67;;;;;;;;;;5069286;28;20166;-59
2021/06/10 11:22:39;;;;;;;16.77;15.37;;;;;;;;;;5068901;28;20596;-60
2021/06/10 11:25:06;;;;;;;16.73;15.53;;;;;;;;;;5068935;28;20224;-60
2021/06/10 11:27:42;;;;;;;18.20;16.77;;;;;;;;;;5068925;28;21248;-60
2021/06/10 11:30:27;;;;;;;16.37;15.17;;;;;;;;;;5069277;28;21014;-61
2021/06/10 11:33:00;;;;;;;19.00;17.50;;;;;;;;;;5068681;28;20608;-61
2021/06/10 11:35:43;;;;;;;19.07;17.67;;;;;;;;;;5069589;28;20798;-61
2021/06/10 11:38:10;;;;;;;17.50;16.20;;;;;;;;;;5069248;28;20687;-61
2021/06/10 11:40:36;;;;;;;16.23;14.97;;;;;;;;;;5069292;28;20739;-62
2021/06/10 11:43:05;;;;;;;13.90;12.90;;;;;;;;;;5068245;28;20578;-62
2021/06/10 11:45:30;;;;;;;12.30;11.40;;;;;;;;;;5068285;28;20214;-61
2021/06/10 11:47:55;;;;;;;11.57;10.70;;;;;;;;;;5069026;28;20952;-62
2021/06/10 11:50:22;;;;;;;10.95;10.25;;;;;;;;;;5068960;28;20214;-61
2021/06/10 11:53:17;;;;;;;11.50;10.60;;;;;;;;;;5068368;28;20193;-61
2021/06/10 11:55:43;;;;;;;9.93;9.07;;;;;;;;;;5068481;28;20985;-62
2021/06/10 11:58:10;;;;;;;7.20;6.70;;;;;;;;;;5069190;28;20581;-62
2021/06/10 12:00:37;;;;;;;6.70;6.30;;;;;;;;;;5068609;28;20210;-62
2021/06/10 12:03:03;;;;;;;7.50;7.00;;;;;;;;;;5068203;28;20693;-62
2021/06/10 12:05:31;;;;;;;6.27;5.80;;;;;;;;;;5068089;28;20583;-62
2021/06/10 12:08:10;;;;;;;7.37;6.77;;;;;;;;;;5068614;28;20616;-62
2021/06/10 12:10:35;;;;;;;7.20;6.70;;;;;;;;;;5068179;28;21260;-62
2021/06/10 12:13:00;;;;;;;6.43;6.03;;;;;;;;;;5068713;28;20598;-62
2021/06/10 12:15:29;;;;;;;7.60;7.00;;;;;;;;;;5067922;28;20183;-62
2021/06/10 12:17:59;;;;;;;6.33;5.83;;;;;;;;;;5068397;28;20167;-62
2021/06/10 12:20:25;;;;;;;6.53;5.93;;;;;;;;;;5068754;28;20581;-62
2021/06/10 12:22:51;;;;;;;10.10;7.17;;;;;;;;;;5068608;28;20697;-61
2021/06/10 12:25:26;;;;;;;7.43;6.83;;;;;;;;;;5067796;28;20635;-62
2021/06/10 12:27:55;;;;;;;6.90;6.40;;;;;;;;;;5068798;28;20184;-61
2021/06/10 12:30:21;;;;;;;6.20;5.80;;;;;;;;;;5067812;28;21032;-61
2021/06/10 12:32:46;;;;;;;6.73;6.33;;;;;;;;;;5066883;28;20644;-61
2021/06/10 12:35:11;;;;;;;7.37;6.70;;;;;;;;;;5067457;28;21145;-61
2021/06/10 12:37:37;;;;;;;7.37;6.93;;;;;;;;;;5067702;28;20207;-61
2021/06/10 12:40:02;;;;;;;8.83;8.13;;;;;;;;;;5068147;28;20214;-61
2021/06/10 12:42:27;;;;;;;8.27;7.77;;;;;;;;;;5068399;28;20644;-61
2021/06/10 12:44:52;;;;;;;8.63;7.93;;;;;;;;;;5066743;28;20754;-61
2021/06/10 12:47:29;;;;;;;8.13;7.53;;;;;;;;;;5068139;28;20255;-60
2021/06/10 12:49:54;;;;;;;8.03;7.33;;;;;;;;;;5067844;28;20163;-60
2021/06/10 12:52:21;;;;;;;8.32;7.72;;;;;;;;;;5067699;28;20716;-60
2021/06/10 12:54:47;;;;;;;8.40;7.80;;;;;;;;;;5067629;28;20167;-60
2021/06/10 12:57:19;;;;;;;8.97;8.30;;;;;;;;;;5067680;28;20601;-61
2021/06/10 12:59:51;;;;;;;7.60;7.10;;;;;;;;;;5067526;28;21113;-60
2021/06/10 13:02:17;;;;;;;7.93;7.43;;;;;;;;;;5067008;28;20598;-61
2021/06/10 13:04:47;;;;;;;8.90;8.20;;;;;;;;;;5067351;28;20601;-61
2021/06/10 13:07:27;;;;;;;8.90;8.10;;;;;;;;;;5067232;28;20617;-62
2021/06/10 13:09:53;;;;;;;9.30;8.50;;;;;;;;;;5067510;28;20725;-61
2021/06/10 13:12:20;;;;;;;8.70;8.10;;;;;;;;;;5067164;28;20640;-61
2021/06/10 13:14:59;;;;;;;8.67;8.00;;;;;;;;;;5066772;28;20563;-61
2021/06/10 13:17:43;;;;;;;8.20;7.53;;;;;;;;;;5067741;28;20945;-61
2021/06/10 13:20:08;;;;;;;9.03;8.43;;;;;;;;;;5067860;28;20592;-61
2021/06/10 13:22:33;;;;;;;9.47;8.87;;;;;;;;;;5066639;28;20597;-61
2021/06/10 13:25:05;;;;;;;8.82;8.23;;;;;;;;;;5066657;28;20179;-61
2021/06/10 13:27:30;;;;;;;9.30;8.60;;;;;;;;;;5066977;28;20188;-61
2021/06/10 13:29:56;;;;;;;9.20;8.60;;;;;;;;;;5066704;28;20666;-61
2021/06/10 13:32:26;;;;;;;10.90;10.00;;;;;;;;;;5067033;28;20207;-60
2021/06/10 13:34:58;;;;;;;9.93;9.23;;;;;;;;;;5067164;28;20578;-61
2021/06/10 13:37:23;;;;;;;9.90;9.20;;;;;;;;;;5066859;28;20602;-61
2021/06/10 13:39:48;;;;;;;9.90;9.30;;;;;;;;;;5066456;28;20602;-61
2021/06/10 13:42:14;;;;;;;10.18;9.38;;;;;;;;;;5066798;28;20239;-60
2021/06/10 13:44:39;;;;;;;11.43;10.63;;;;;;;;;;5067216;28;20171;-61
2021/06/10 13:47:05;;;;;;;11.03;10.33;;;;;;;;;;5066553;28;20258;-60
2021/06/10 13:49:30;;;;;;;10.67;9.97;;;;;;;;;;5067380;28;20262;-60
2021/06/10 13:51:55;;;;;;;10.68;9.98;;;;;;;;;;5066545;28;20205;-60
2021/06/10 13:54:20;;;;;;;10.50;9.70;;;;;;;;;;5066318;28;20174;-60
2021/06/10 13:56:47;;;;;;;10.27;9.60;;;;;;;;;;5066733;28;20211;-60
2021/06/10 13:59:12;;;;;;;12.00;11.10;;;;;;;;;;5066147;28;20176;-60
2021/06/10 14:01:37;;;;;;;12.03;11.23;;;;;;;;;;5066567;28;20574;-60
2021/06/10 14:04:04;;;;;;;12.23;11.43;;;;;;;;;;5065869;28;20190;-60
2021/06/10 14:06:29;;;;;;;11.40;10.70;;;;;;;;;;5065872;28;20175;-60
2021/06/10 14:08:56;;;;;;;12.20;11.30;;;;;;;;;;5066407;28;20713;-60
2021/06/10 14:11:21;;;;;;;11.10;10.40;;;;;;;;;;5065676;28;20309;-60
2021/06/10 14:13:46;;;;;;;12.07;11.27;;;;;;;;;;5066120;28;20604;-60
2021/06/10 14:16:17;;;;;;;11.97;11.20;;;;;;;;;;5066265;28;20182;-60
2021/06/10 14:18:43;;;;;;;12.07;11.17;;;;;;;;;;5066568;28;20206;-61
2021/06/10 14:21:08;;;;;;;12.77;11.83;;;;;;;;;;5065929;28;20639;-60
2021/06/10 14:23:33;;;;;;;13.47;12.37;;;;;;;;;;5065779;28;20186;-60
2021/06/10 14:25:58;;;;;;;11.47;10.67;;;;;;;;;;5065848;28;20512;-60
2021/06/10 14:28:23;;;;;;;12.32;11.43;;;;;;;;;;5070002;28;20178;-60
2021/06/10 14:30:52;;;;;;;12.32;11.35;;;;;;;;;;5070160;28;20190;-59
2021/06/10 14:33:17;;;;;;;11.20;10.40;;;;;;;;;;5069443;28;20252;-60
2021/06/10 14:35:42;;;;;;;10.97;10.27;;;;;;;;;;5070694;28;21219;-60